Time;durP1;ratioP1;P1;durP2;ratioP2;P2;SDS_P1;SDS_P2;PMS_P1;PMS_P2;Temp;Humidity;BMP_temperature;BMP_pressure;BME280_temperature;BME280_humidity;BME280_pressure;Samples;Min_cycle;Max_cycle;Signal;HPM_P1;HPM_P2
2023/08/05 00:01:06;;;;;;;11.32;5.00;;;14.50;99.90;;;;;;5045823;28;20045;-66
2023/08/05 00:03:32;;;;;;;12.73;4.90;;;14.50;99.90;;;;;;5045599;28;20064;-67
2023/08/05 00:05:57;;;;;;;9.88;4.60;;;14.40;99.90;;;;;;5045184;28;20745;-68
2023/08/05 00:08:24;;;;;;;12.75;4.80;;;14.40;99.90;;;;;;5045667;28;20488;-65
2023/08/05 00:10:50;;;;;;;9.55;4.75;;;14.40;99.90;;;;;;5044363;28;20032;-65
2023/08/05 00:13:16;;;;;;;13.48;5.38;;;14.40;99.90;;;;;;5028947;28;20072;-67
2023/08/05 00:15:41;;;;;;;18.85;5.22;;;14.40;99.90;;;;;;5063685;28;20334;-67
2023/08/05 00:18:07;;;;;;;14.60;5.30;;;14.40;99.90;;;;;;5046341;28;20135;-67
2023/08/05 00:20:33;;;;;;;12.23;5.10;;;14.30;99.90;;;;;;5063478;28;20070;-65
2023/08/05 00:22:59;;;;;;;10.73;4.60;;;14.30;99.90;;;;;;5045377;28;20047;-66
2023/08/05 00:25:24;;;;;;;11.35;4.50;;;14.30;99.90;;;;;;5044601;28;20037;-66
2023/08/05 00:27:50;;;;;;;12.88;5.05;;;14.30;99.90;;;;;;5044490;28;20083;-67
2023/08/05 00:30:15;;;;;;;12.18;4.90;;;14.30;99.90;;;;;;5056037;28;20037;-68
2023/08/05 00:32:41;;;;;;;12.65;5.22;;;14.30;99.90;;;;;;5044780;28;20630;-65
2023/08/05 00:35:07;;;;;;;11.50;5.38;;;14.30;99.90;;;;;;5049098;28;20105;-66
2023/08/05 00:37:33;;;;;;;8.95;4.50;;;14.30;99.90;;;;;;5049720;28;20537;-70
2023/08/05 00:40:00;;;;;;;17.58;4.60;;;14.30;99.90;;;;;;5030396;28;20515;-67
2023/08/05 00:42:26;;;;;;;8.50;4.35;;;14.30;99.90;;;;;;5047895;28;20048;-64
2023/08/05 00:44:52;;;;;;;10.32;4.45;;;14.30;99.90;;;;;;5049261;28;20043;-66
2023/08/05 00:47:18;;;;;;;10.93;4.63;;;14.30;99.90;;;;;;5049632;28;20044;-63
2023/08/05 00:49:45;;;;;;;10.30;4.00;;;14.30;99.90;;;;;;5067169;28;20076;-65
2023/08/05 00:52:13;;;;;;;10.32;4.28;;;14.30;99.90;;;;;;5048515;28;20051;-63
2023/08/05 00:54:40;;;;;;;11.93;4.95;;;14.30;99.90;;;;;;5067271;28;20037;-65
2023/08/05 00:57:06;;;;;;;16.40;4.30;;;14.30;99.90;;;;;;5046610;28;20056;-65
2023/08/05 00:59:32;;;;;;;10.93;4.15;;;14.30;99.90;;;;;;5032179;28;20040;-66
2023/08/05 01:01:58;;;;;;;15.82;4.07;;;14.30;99.90;;;;;;5048586;28;20144;-66
2023/08/05 01:04:23;;;;;;;10.00;4.32;;;14.30;99.90;;;;;;5049322;28;20052;-65
2023/08/05 01:06:51;;;;;;;9.63;3.80;;;14.30;99.90;;;;;;5056436;28;20135;-64
2023/08/05 01:09:16;;;;;;;7.82;3.42;;;14.30;99.90;;;;;;5046615;28;20818;-65
2023/08/05 01:11:42;;;;;;;8.75;3.63;;;14.30;99.90;;;;;;5044727;28;20127;-62
2023/08/05 01:14:08;;;;;;;8.75;3.70;;;14.30;99.90;;;;;;5064942;28;20036;-65
2023/08/05 01:16:33;;;;;;;9.43;3.75;;;14.30;99.90;;;;;;5048024;28;20032;-65
2023/08/05 01:19:00;;;;;;;8.88;3.58;;;14.30;99.90;;;;;;5028948;28;20549;-64
2023/08/05 01:21:42;;;;;;;12.90;3.78;;;14.30;99.90;;;;;;5046364;28;20044;-64
2023/08/05 01:24:46;;;;;;;9.80;3.80;;;14.40;99.90;;;;;;5063771;28;20033;-65
2023/08/05 01:27:12;;;;;;;12.75;3.67;;;14.30;99.90;;;;;;5063946;28;20040;-65
2023/08/05 01:29:38;;;;;;;11.05;3.80;;;14.40;99.90;;;;;;5045683;28;20047;-63
2023/08/05 01:32:06;;;;;;;8.85;3.55;;;14.30;99.90;;;;;;5028277;28;20534;-63
2023/08/05 01:34:32;;;;;;;11.70;4.15;;;14.30;99.90;;;;;;5046332;28;20037;-64
2023/08/05 01:36:58;;;;;;;9.73;3.72;;;14.30;99.90;;;;;;5046125;28;20052;-64
2023/08/05 01:39:23;;;;;;;12.15;4.18;;;14.30;99.90;;;;;;5030437;28;20067;-64
2023/08/05 01:41:49;;;;;;;13.77;3.75;;;14.30;99.90;;;;;;5045467;28;20040;-65
2023/08/05 01:44:14;;;;;;;8.73;4.07;;;14.20;99.90;;;;;;5047168;28;20135;-64
2023/08/05 01:46:40;;;;;;;12.98;4.18;;;14.20;99.90;;;;;;5047742;28;20044;-64
2023/08/05 01:49:05;;;;;;;12.50;4.32;;;14.20;99.90;;;;;;5048471;28;20083;-64
2023/08/05 01:51:31;;;;;;;9.90;4.50;;;14.20;99.90;;;;;;5047689;28;20036;-64
2023/08/05 01:53:57;;;;;;;10.82;4.35;;;14.10;99.90;;;;;;5064573;28;20039;-64
2023/08/05 01:56:22;;;;;;;12.82;4.70;;;14.10;99.90;;;;;;5058535;28;20035;-64
2023/08/05 01:58:48;;;;;;;13.02;5.13;;;14.00;99.90;;;;;;5045190;28;20192;-63
2023/08/05 02:01:13;;;;;;;12.82;5.03;;;14.00;99.90;;;;;;5040737;28;20273;-66
2023/08/05 02:03:39;;;;;;;10.75;4.72;;;14.00;99.90;;;;;;5045730;28;20107;-67
2023/08/05 02:06:04;;;;;;;10.55;4.75;;;14.00;99.90;;;;;;5038743;28;20582;-64
2023/08/05 02:08:30;;;;;;;10.68;4.57;;;13.90;99.90;;;;;;5047409;28;20087;-66
2023/08/05 02:10:55;;;;;;;10.63;4.68;;;13.90;99.90;;;;;;5045600;28;20037;-66
2023/08/05 02:13:21;;;;;;;12.40;4.85;;;13.90;99.90;;;;;;5047294;28;20588;-64
2023/08/05 02:15:47;;;;;;;9.98;4.57;;;13.80;99.90;;;;;;5046478;28;20502;-65
2023/08/05 02:18:12;;;;;;;7.82;4.43;;;13.80;99.90;;;;;;5065414;28;20037;-64
2023/08/05 02:20:38;;;;;;;11.57;4.88;;;13.80;99.90;;;;;;5030595;28;20113;-64
2023/08/05 02:23:03;;;;;;;10.43;4.28;;;13.80;99.90;;;;;;5030188;28;20159;-65
2023/08/05 02:25:29;;;;;;;10.52;5.07;;;13.70;99.90;;;;;;5045385;28;20059;-65
2023/08/05 02:27:55;;;;;;;11.75;4.63;;;13.70;99.90;;;;;;5045925;28;20419;-64
2023/08/05 02:30:20;;;;;;;10.93;4.47;;;13.60;99.90;;;;;;5038848;28;20139;-64
2023/08/05 02:32:46;;;;;;;12.70;5.00;;;13.50;99.90;;;;;;5044769;28;20459;-64
2023/08/05 02:35:12;;;;;;;9.02;5.03;;;13.40;99.90;;;;;;5029925;28;20044;-63
2023/08/05 02:37:37;;;;;;;15.07;5.35;;;13.30;99.90;;;;;;5046813;28;20044;-63
2023/08/05 02:40:03;;;;;;;10.52;4.90;;;13.30;99.90;;;;;;5045811;28;20044;-64
2023/08/05 02:42:29;;;;;;;10.60;5.18;;;13.20;99.90;;;;;;5063486;28;20123;-64
2023/08/05 02:44:54;;;;;;;11.00;5.50;;;13.10;99.90;;;;;;5042558;28;20530;-64
2023/08/05 02:47:20;;;;;;;14.70;5.25;;;13.00;99.90;;;;;;5026791;28;20056;-63
2023/08/05 02:49:46;;;;;;;11.48;4.75;;;13.00;99.90;;;;;;5038607;28;20036;-63
2023/08/05 02:52:12;;;;;;;11.88;4.65;;;13.00;99.90;;;;;;5028739;28;20044;-64
2023/08/05 02:54:37;;;;;;;9.93;4.63;;;13.00;99.90;;;;;;5029353;28;20036;-62
2023/08/05 02:57:03;;;;;;;12.63;5.68;;;13.00;99.90;;;;;;5044364;28;20055;-63
2023/08/05 02:59:28;;;;;;;12.32;5.40;;;13.00;99.90;;;;;;5063657;28;20055;-63
2023/08/05 03:01:54;;;;;;;13.07;5.68;;;12.90;99.90;;;;;;5026218;28;20056;-63
2023/08/05 03:04:20;;;;;;;14.90;5.85;;;12.90;99.90;;;;;;5035919;28;20079;-65
2023/08/05 03:06:45;;;;;;;10.70;4.80;;;12.80;99.90;;;;;;5046166;28;20687;-64
2023/08/05 03:09:11;;;;;;;12.02;5.20;;;12.80;99.90;;;;;;5046052;28;20110;-64
2023/08/05 03:11:36;;;;;;;9.10;4.68;;;12.80;99.90;;;;;;5062377;28;20040;-64
2023/08/05 03:14:02;;;;;;;10.07;4.43;;;12.80;99.90;;;;;;5046209;28;20044;-64
2023/08/05 03:16:27;;;;;;;10.50;4.97;;;12.80;99.90;;;;;;5064060;28;20404;-65
2023/08/05 03:18:53;;;;;;;10.95;4.70;;;12.80;99.90;;;;;;5046899;28;20056;-64
2023/08/05 03:21:19;;;;;;;10.20;4.57;;;12.70;99.90;;;;;;5063558;28;20045;-65
2023/08/05 03:23:44;;;;;;;10.07;5.25;;;12.70;99.90;;;;;;5045646;28;20044;-67
2023/08/05 03:26:10;;;;;;;10.77;5.03;;;12.70;99.90;;;;;;5044167;28;20539;-64
2023/08/05 03:28:35;;;;;;;11.63;5.72;;;12.60;99.90;;;;;;5045726;28;20152;-65
2023/08/05 03:31:02;;;;;;;13.45;6.32;;;12.60;99.90;;;;;;5063898;28;20452;-65
2023/08/05 03:33:27;;;;;;;11.48;5.90;;;12.60;99.90;;;;;;5063933;28;20040;-64
2023/08/05 03:35:53;;;;;;;13.07;5.10;;;12.60;99.90;;;;;;5049937;28;20400;-64
2023/08/05 03:38:19;;;;;;;11.18;5.55;;;12.60;99.90;;;;;;5026223;28;20058;-64
2023/08/05 03:40:44;;;;;;;12.23;5.25;;;12.70;99.90;;;;;;5041987;28;20488;-63
2023/08/05 03:43:10;;;;;;;10.98;5.50;;;12.70;99.90;;;;;;5025519;28;20462;-64
2023/08/05 03:45:35;;;;;;;10.77;5.50;;;12.70;99.90;;;;;;5036134;28;20044;-64
2023/08/05 03:48:01;;;;;;;15.95;6.07;;;12.70;99.90;;;;;;5029045;28;20074;-67
2023/08/05 03:50:28;;;;;;;13.18;4.68;;;12.70;99.90;;;;;;5045447;28;20058;-65
2023/08/05 03:52:57;;;;;;;13.80;5.10;;;12.70;99.90;;;;;;5045696;28;20129;-64
2023/08/05 03:55:23;;;;;;;12.27;4.95;;;12.60;99.90;;;;;;5061610;28;20056;-66
2023/08/05 03:57:49;;;;;;;16.88;6.22;;;12.70;99.90;;;;;;5044391;28;20150;-65
2023/08/05 04:00:15;;;;;;;12.57;5.70;;;12.70;99.90;;;;;;5062747;28;20044;-67
2023/08/05 04:02:41;;;;;;;12.30;5.32;;;12.70;99.90;;;;;;5025811;28;20137;-64
2023/08/05 04:05:07;;;;;;;14.90;5.32;;;12.70;99.90;;;;;;5042012;28;20044;-65
2023/08/05 04:07:34;;;;;;;12.85;5.85;;;12.70;99.90;;;;;;5046173;28;20037;-65
2023/08/05 04:10:00;;;;;;;14.25;5.20;;;12.80;99.90;;;;;;5047539;28;20040;-64
2023/08/05 04:12:26;;;;;;;10.30;5.60;;;12.80;99.90;;;;;;5044742;28;20037;-64
2023/08/05 04:14:52;;;;;;;13.77;5.40;;;12.90;99.90;;;;;;5047319;28;20146;-64
2023/08/05 04:17:19;;;;;;;9.77;5.10;;;12.90;99.90;;;;;;5046337;28;20049;-63
2023/08/05 04:19:46;;;;;;;11.82;5.70;;;12.90;99.90;;;;;;5047869;28;20049;-63
2023/08/05 04:22:12;;;;;;;10.10;5.22;;;13.00;99.90;;;;;;5045275;28;20048;-64
2023/08/05 04:24:41;;;;;;;10.65;5.78;;;13.00;99.90;;;;;;5028300;28;20063;-64
2023/08/05 04:27:07;;;;;;;11.05;5.30;;;13.00;99.90;;;;;;5024844;28;20060;-64
2023/08/05 04:29:34;;;;;;;12.80;5.78;;;13.00;99.90;;;;;;5027711;28;20120;-64
2023/08/05 04:31:59;;;;;;;11.65;6.28;;;13.00;99.90;;;;;;5047403;28;20442;-65
2023/08/05 04:34:25;;;;;;;15.75;5.68;;;13.00;99.90;;;;;;5045610;28;20033;-66
2023/08/05 04:36:52;;;;;;;12.35;5.60;;;13.00;99.90;;;;;;5046981;28;20041;-64
2023/08/05 04:39:21;;;;;;;14.63;6.47;;;13.00;99.90;;;;;;5045191;28;20036;-64
2023/08/05 04:41:47;;;;;;;14.63;6.32;;;13.10;99.90;;;;;;5030739;28;20053;-65
2023/08/05 04:44:13;;;;;;;10.75;5.50;;;13.30;99.90;;;;;;5032824;28;20594;-64
2023/08/05 04:46:39;;;;;;;11.05;5.30;;;13.40;99.90;;;;;;5045547;28;20526;-65
2023/08/05 04:49:07;;;;;;;13.52;5.50;;;13.50;99.90;;;;;;5029318;28;20206;-66
2023/08/05 04:51:34;;;;;;;11.65;5.88;;;13.50;99.90;;;;;;5046358;28;20047;-65
2023/08/05 04:54:00;;;;;;;11.52;6.15;;;13.50;99.90;;;;;;5045015;28;20033;-65
2023/08/05 04:56:26;;;;;;;13.27;6.10;;;13.50;99.90;;;;;;5037678;28;20029;-65
2023/08/05 04:58:52;;;;;;;9.23;5.13;;;13.50;99.90;;;;;;5042549;28;20041;-64
2023/08/05 05:01:18;;;;;;;12.77;6.07;;;13.50;99.90;;;;;;5043078;28;20051;-64
2023/08/05 05:03:48;;;;;;;14.15;6.50;;;13.50;99.90;;;;;;5048410;28;20076;-65
2023/08/05 05:06:14;;;;;;;15.45;6.13;;;13.50;99.90;;;;;;5060634;28;20040;-63
2023/08/05 05:08:40;;;;;;;13.07;6.60;;;13.50;99.90;;;;;;5046640;28;20039;-66
2023/08/05 05:11:07;;;;;;;16.35;6.80;;;13.50;99.90;;;;;;5037018;28;20396;-64
2023/08/05 05:13:33;;;;;;;13.23;6.75;;;13.50;99.90;;;;;;5048539;28;20032;-64
2023/08/05 05:15:58;;;;;;;16.48;6.72;;;13.60;99.90;;;;;;5048488;28;20097;-64
2023/08/05 05:18:24;;;;;;;12.60;6.65;;;13.60;99.90;;;;;;5066636;28;20123;-66
2023/08/05 05:20:50;;;;;;;11.88;6.68;;;13.60;99.90;;;;;;5066261;28;20045;-64
2023/08/05 05:23:16;;;;;;;11.60;6.05;;;13.60;99.90;;;;;;5051663;28;20106;-63
2023/08/05 05:25:42;;;;;;;10.85;6.22;;;13.60;99.90;;;;;;5027675;28;20519;-66
2023/08/05 05:28:07;;;;;;;10.23;5.97;;;13.70;99.90;;;;;;5044479;28;20040;-64
2023/08/05 05:30:35;;;;;;;13.02;6.38;;;13.70;99.90;;;;;;5037885;28;20043;-63
2023/08/05 05:33:01;;;;;;;14.05;6.45;;;13.70;99.90;;;;;;5048125;28;20189;-64
2023/08/05 05:35:28;;;;;;;14.23;5.95;;;13.80;99.90;;;;;;5048194;28;20582;-63
2023/08/05 05:37:54;;;;;;;13.15;6.18;;;13.80;99.90;;;;;;5031217;28;20051;-63
2023/08/05 05:40:20;;;;;;;10.73;5.93;;;13.80;99.90;;;;;;5046710;28;20044;-64
2023/08/05 05:42:49;;;;;;;12.05;5.65;;;13.80;99.90;;;;;;5064403;28;20041;-62
2023/08/05 05:45:15;;;;;;;15.07;5.78;;;13.90;99.90;;;;;;5065809;28;20845;-64
2023/08/05 05:47:40;;;;;;;14.05;6.15;;;13.90;99.90;;;;;;5031386;28;20049;-64
2023/08/05 05:50:07;;;;;;;10.80;6.40;;;14.00;99.90;;;;;;5048603;28;20575;-65
2023/08/05 05:52:33;;;;;;;15.10;7.43;;;14.00;99.90;;;;;;5048045;28;20086;-65
2023/08/05 05:54:59;;;;;;;12.68;7.05;;;14.20;99.90;;;;;;5029813;28;20056;-65
2023/08/05 05:57:25;;;;;;;11.93;7.57;;;14.30;99.90;;;;;;5025920;28;20476;-63
2023/08/05 05:59:50;;;;;;;16.45;10.45;;;14.50;99.90;;;;;;5012211;28;20044;-64
2023/08/05 06:02:16;;;;;;;21.05;13.50;;;14.50;99.90;;;;;;5039695;28;20052;-63
2023/08/05 06:04:44;;;;;;;16.95;12.88;;;14.60;99.90;;;;;;5066058;28;20097;-63
2023/08/05 06:07:09;;;;;;;17.17;12.27;;;14.60;99.90;;;;;;5046363;28;20045;-65
2023/08/05 06:09:35;;;;;;;15.25;11.00;;;14.60;99.90;;;;;;5046510;28;20325;-62
2023/08/05 06:12:01;;;;;;;14.65;8.23;;;14.60;99.90;;;;;;5044634;28;20136;-64
2023/08/05 06:14:29;;;;;;;13.60;6.57;;;14.80;99.90;;;;;;5064621;28;20333;-65
2023/08/05 06:16:54;;;;;;;9.88;5.40;;;14.90;99.90;;;;;;5046085;28;20405;-64
2023/08/05 06:19:20;;;;;;;10.68;4.75;;;15.10;99.90;;;;;;5046117;28;20032;-63
2023/08/05 06:21:46;;;;;;;9.40;4.25;;;15.20;99.90;;;;;;5045903;28;20044;-63
2023/08/05 06:24:12;;;;;;;7.90;3.63;;;15.40;99.90;;;;;;5047098;28;20048;-65
2023/08/05 06:26:38;;;;;;;11.73;4.28;;;15.50;99.90;;;;;;5045109;28;20045;-66
2023/08/05 06:29:03;;;;;;;8.20;3.58;;;15.60;99.90;;;;;;5046420;28;20071;-65
2023/08/05 06:31:30;;;;;;;7.25;3.05;;;15.70;99.90;;;;;;5046161;28;20053;-66
2023/08/05 06:33:56;;;;;;;8.20;3.10;;;15.90;99.90;;;;;;5047712;28;20083;-65
2023/08/05 06:36:22;;;;;;;8.23;3.13;;;16.10;99.90;;;;;;5046525;28;20041;-65
2023/08/05 06:38:47;;;;;;;8.65;2.72;;;16.20;99.90;;;;;;5046647;28;20459;-65
2023/08/05 06:41:13;;;;;;;7.47;2.70;;;16.30;99.90;;;;;;5053581;28;20093;-64
2023/08/05 06:43:38;;;;;;;7.28;2.88;;;16.40;99.90;;;;;;5044733;28;20579;-66
2023/08/05 06:46:04;;;;;;;7.32;2.40;;;16.50;99.90;;;;;;5063158;28;20167;-64
2023/08/05 06:48:30;;;;;;;9.80;2.50;;;16.50;99.90;;;;;;5046892;28;20411;-65
2023/08/05 06:50:56;;;;;;;7.50;2.63;;;16.50;99.90;;;;;;5064669;28;20044;-65
2023/08/05 06:53:22;;;;;;;8.63;2.80;;;16.60;99.90;;;;;;5046226;28;20464;-65
2023/08/05 06:55:47;;;;;;;7.03;2.67;;;16.70;99.90;;;;;;5044024;28;20077;-65
2023/08/05 06:58:13;;;;;;;13.98;2.80;;;16.70;99.90;;;;;;5026673;28;20171;-64
2023/08/05 07:00:39;;;;;;;9.88;2.70;;;16.80;99.90;;;;;;5027611;28;20780;-64
2023/08/05 07:03:04;;;;;;;6.75;2.70;;;16.90;99.90;;;;;;5045136;28;20135;-67
2023/08/05 07:05:30;;;;;;;8.35;3.10;;;17.00;99.90;;;;;;5026683;28;20045;-63
2023/08/05 07:07:56;;;;;;;6.57;3.25;;;17.00;99.90;;;;;;5036668;28;20049;-65
2023/08/05 07:10:22;;;;;;;7.70;2.47;;;17.10;99.90;;;;;;5026810;28;20051;-65
2023/08/05 07:12:48;;;;;;;8.88;2.63;;;17.10;99.90;;;;;;5025486;28;20040;-66
2023/08/05 07:15:13;;;;;;;8.48;3.15;;;17.10;99.90;;;;;;5032508;28;20044;-67
2023/08/05 07:17:39;;;;;;;8.52;2.75;;;17.10;99.90;;;;;;5047082;28;20048;-64
2023/08/05 07:20:06;;;;;;;7.75;2.50;;;17.10;99.90;;;;;;5063879;28;20036;-65
2023/08/05 07:22:32;;;;;;;7.63;2.45;;;17.10;99.90;;;;;;5045961;28;20041;-66
2023/08/05 07:24:57;;;;;;;7.03;2.50;;;17.10;99.90;;;;;;5060680;28;20089;-67
2023/08/05 07:27:23;;;;;;;7.53;2.50;;;17.10;99.90;;;;;;5043543;28;20160;-66
2023/08/05 07:29:48;;;;;;;9.45;2.80;;;17.20;99.90;;;;;;5045254;28;20029;-65
2023/08/05 07:32:14;;;;;;;7.55;2.60;;;17.20;99.90;;;;;;5045551;28;20090;-64
2023/08/05 07:34:40;;;;;;;7.95;2.60;;;17.20;99.90;;;;;;5046154;28;20487;-64
2023/08/05 07:37:06;;;;;;;13.20;3.00;;;17.20;99.90;;;;;;5044646;28;20426;-66
2023/08/05 07:39:35;;;;;;;7.10;2.60;;;17.20;99.90;;;;;;5044707;28;20511;-65
2023/08/05 07:42:03;;;;;;;8.65;2.70;;;17.10;99.90;;;;;;5059362;28;20085;-65
2023/08/05 07:44:32;;;;;;;7.82;2.22;;;17.10;99.90;;;;;;5045765;28;20076;-66
2023/08/05 07:46:58;;;;;;;9.05;2.50;;;17.10;99.90;;;;;;5062213;28;20036;-68
2023/08/05 07:49:26;;;;;;;5.82;2.40;;;17.10;99.90;;;;;;5063321;28;20036;-66
2023/08/05 07:51:53;;;;;;;8.77;2.42;;;17.20;99.90;;;;;;5044895;28;20075;-68
2023/08/05 07:54:20;;;;;;;8.02;2.80;;;17.30;99.90;;;;;;5044792;28;20115;-64
2023/08/05 07:56:46;;;;;;;7.15;3.03;;;17.40;99.90;;;;;;5060559;28;20041;-64
2023/08/05 07:59:12;;;;;;;6.93;2.30;;;17.50;99.90;;;;;;5062957;28;20468;-69
2023/08/05 08:01:42;;;;;;;6.88;2.63;;;17.60;99.90;;;;;;5017312;28;20053;-66
2023/08/05 08:04:09;;;;;;;5.97;2.47;;;17.60;99.90;;;;;;5063560;28;20044;-64
2023/08/05 08:06:35;;;;;;;7.68;2.60;;;17.60;99.90;;;;;;5061348;28;20041;-64
2023/08/05 08:09:01;;;;;;;6.43;2.20;;;17.60;99.90;;;;;;5062907;28;20090;-64
2023/08/05 08:11:26;;;;;;;5.63;2.60;;;17.70;99.90;;;;;;5036315;28;20048;-64
2023/08/05 08:13:52;;;;;;;8.95;2.42;;;17.80;99.90;;;;;;5045700;28;20041;-64
2023/08/05 08:16:18;;;;;;;8.57;3.00;;;17.90;99.90;;;;;;5060712;28;20064;-63
2023/08/05 08:18:46;;;;;;;7.45;2.45;;;18.00;99.90;;;;;;5063162;28;20045;-66
2023/08/05 08:21:12;;;;;;;7.93;2.53;;;18.10;99.90;;;;;;5044354;28;20047;-63
2023/08/05 08:23:37;;;;;;;8.38;2.53;;;18.20;99.90;;;;;;5044228;28;20075;-65
2023/08/05 08:26:03;;;;;;;8.35;2.55;;;18.20;99.90;;;;;;5052783;28;20049;-64
2023/08/05 08:28:29;;;;;;;9.20;2.95;;;18.20;99.90;;;;;;5062269;28;20048;-64
2023/08/05 08:30:57;;;;;;;6.38;2.58;;;18.20;99.90;;;;;;5041229;28;20033;-64
2023/08/05 08:33:23;;;;;;;7.07;2.60;;;18.20;99.90;;;;;;5060911;28;20048;-63
2023/08/05 08:35:49;;;;;;;5.82;2.38;;;18.10;99.90;;;;;;5062323;28;20036;-65
2023/08/05 08:38:16;;;;;;;8.00;2.50;;;18.10;99.90;;;;;;5044988;28;20040;-64
2023/08/05 08:40:46;;;;;;;6.35;2.60;;;18.10;99.90;;;;;;5037571;28;20159;-65
2023/08/05 08:43:17;;;;;;;6.03;2.50;;;18.00;99.90;;;;;;5024611;28;20075;-65
2023/08/05 08:45:44;;;;;;;8.02;3.08;;;18.00;99.90;;;;;;5052077;28;20155;-64
2023/08/05 08:48:11;;;;;;;8.85;2.67;;;17.90;99.90;;;;;;5043576;28;20040;-63
2023/08/05 08:50:39;;;;;;;6.05;2.35;;;17.90;99.90;;;;;;5061082;28;20089;-66
2023/08/05 08:53:08;;;;;;;8.10;2.30;;;17.90;99.90;;;;;;5063991;28;20068;-63
2023/08/05 08:55:35;;;;;;;8.85;3.08;;;18.00;99.90;;;;;;5029930;28;20105;-61
2023/08/05 08:58:01;;;;;;;6.55;2.47;;;18.00;99.90;;;;;;5055743;28;20454;-61
2023/08/05 09:00:32;;;;;;;8.65;2.35;;;18.10;99.90;;;;;;5047892;28;20049;-62
2023/08/05 09:02:59;;;;;;;7.22;2.38;;;18.20;99.90;;;;;;5066528;28;20136;-62
2023/08/05 09:05:31;;;;;;;6.10;2.60;;;18.30;99.90;;;;;;5060170;28;20047;-62
2023/08/05 09:07:57;;;;;;;5.78;2.05;;;18.50;99.90;;;;;;5029865;28;20033;-64
2023/08/05 09:10:24;;;;;;;5.53;2.00;;;18.70;99.90;;;;;;5044055;28;20115;-63
2023/08/05 09:12:50;;;;;;;6.53;2.30;;;18.80;99.90;;;;;;5045890;28;20488;-63
2023/08/05 09:15:15;;;;;;;6.93;2.15;;;18.90;99.90;;;;;;5047258;28;20635;-64
2023/08/05 09:17:41;;;;;;;6.90;2.38;;;19.10;99.90;;;;;;5047726;28;20126;-62
2023/08/05 09:20:16;;;;;;;5.22;1.90;;;19.00;99.90;;;;;;5046686;28;20060;-63
2023/08/05 09:22:53;;;;;;;5.97;2.05;;;19.00;99.90;;;;;;5062495;28;20055;-64
2023/08/05 09:25:18;;;;;;;7.90;1.80;;;19.00;99.90;;;;;;5032312;28;20752;-63
2023/08/05 09:27:46;;;;;;;7.03;2.28;;;19.00;99.90;;;;;;5029367;28;20033;-63
2023/08/05 09:30:19;;;;;;;5.72;2.00;;;19.10;99.90;;;;;;5047909;28;20041;-63
2023/08/05 09:32:47;;;;;;;6.75;2.35;;;19.30;99.90;;;;;;5048031;28;20072;-62
2023/08/05 09:35:14;;;;;;;6.20;1.90;;;19.60;99.90;;;;;;5065704;28;20458;-64
2023/08/05 09:37:48;;;;;;;5.85;2.30;;;19.90;99.90;;;;;;5047759;28;20048;-66
2023/08/05 09:40:39;;;;;;;;;;;20.20;99.90;;;;;;5042952;28;20040;-64
2023/08/05 09:43:07;;;;;;;5.65;2.17;;;20.50;99.90;;;;;;5060906;28;20345;-64
2023/08/05 09:45:34;;;;;;;7.75;1.88;;;20.80;99.90;;;;;;5061273;28;20094;-65
2023/08/05 09:48:06;;;;;;;5.65;2.40;;;21.10;99.90;;;;;;5048229;28;20045;-65
2023/08/05 09:50:37;;;;;;;5.88;2.45;;;21.10;99.90;;;;;;5063847;28;20550;-65
2023/08/05 09:53:13;;;;;;;5.75;2.13;;;21.00;99.90;;;;;;5043825;28;20033;-64
2023/08/05 09:55:39;;;;;;;5.43;2.17;;;20.90;99.90;;;;;;5044463;28;20737;-66
2023/08/05 09:58:07;;;;;;;5.90;2.08;;;20.80;99.90;;;;;;5027006;28;20127;-65
2023/08/05 10:00:35;;;;;;;5.25;1.98;;;20.80;99.90;;;;;;5025615;28;20945;-66
2023/08/05 10:03:06;;;;;;;5.35;2.10;;;20.60;99.90;;;;;;5047574;28;20052;-67
2023/08/05 10:05:33;;;;;;;5.63;2.38;;;20.40;99.90;;;;;;5046550;28;20821;-66
2023/08/05 10:07:59;;;;;;;6.85;2.10;;;20.20;99.90;;;;;;5066110;28;20079;-64
2023/08/05 10:10:25;;;;;;;4.72;1.83;;;19.90;99.90;;;;;;5063874;28;20032;-64
2023/08/05 10:12:57;;;;;;;4.57;1.50;;;19.80;99.90;;;;;;5046015;28;20047;-65
2023/08/05 10:15:30;;;;;;;5.10;1.63;;;19.60;99.90;;;;;;5064201;28;20068;-64
2023/08/05 10:17:56;;;;;;;6.03;1.97;;;19.50;99.90;;;;;;5047484;28;20361;-65
2023/08/05 10:20:22;;;;;;;8.05;2.30;;;19.40;99.90;;;;;;5047313;28;20456;-64
2023/08/05 10:23:06;;;;;;;5.68;1.90;;;19.20;99.90;;;;;;5053418;28;20143;-62
2023/08/05 10:25:42;;;;;;;5.85;2.00;;;19.20;99.90;;;;;;5034302;28;20131;-63
2023/08/05 10:28:34;;;;;;;7.72;2.40;;;19.20;99.90;;;;;;5046680;28;20041;-69
2023/08/05 10:31:03;;;;;;;6.60;2.75;;;19.20;99.90;;;;;;5047682;28;20559;-67
2023/08/05 10:33:29;;;;;;;4.97;1.80;;;19.10;99.90;;;;;;5064975;28;20037;-65
2023/08/05 10:36:03;;;;;;;4.75;2.00;;;19.10;99.90;;;;;;5030155;28;20047;-65
2023/08/05 10:38:41;;;;;;;7.43;2.40;;;19.20;99.90;;;;;;5046330;28;20040;-63
2023/08/05 10:41:06;;;;;;;5.60;2.10;;;19.30;99.90;;;;;;5053740;28;20086;-66
2023/08/05 10:43:40;;;;;;;6.72;2.20;;;19.40;99.90;;;;;;5043379;28;20048;-65
2023/08/05 10:46:06;;;;;;;8.88;2.38;;;19.30;99.90;;;;;;5046597;28;20060;-65
2023/08/05 10:48:38;;;;;;;4.60;2.00;;;19.30;99.90;;;;;;5065390;28;20045;-67
2023/08/05 10:51:08;;;;;;;6.00;2.22;;;19.40;99.90;;;;;;5029586;28;20098;-65
2023/08/05 10:53:34;;;;;;;10.32;2.47;;;19.50;99.90;;;;;;5045481;28;20045;-64
2023/08/05 10:56:00;;;;;;;5.53;2.25;;;19.50;99.90;;;;;;5046015;28;20068;-65
2023/08/05 10:58:34;;;;;;;6.10;2.40;;;19.50;99.90;;;;;;5046882;28;20467;-66
2023/08/05 11:01:02;;;;;;;7.50;2.58;;;19.50;99.90;;;;;;5044611;28;20099;-62
2023/08/05 11:03:41;;;;;;;7.22;2.40;;;19.50;99.90;;;;;;5043211;28;20088;-63
2023/08/05 11:06:07;;;;;;;6.72;2.30;;;19.50;99.90;;;;;;5044142;28;20492;-63
2023/08/05 11:08:35;;;;;;;5.82;2.25;;;19.50;99.90;;;;;;5041209;28;20052;-64
2023/08/05 11:11:06;;;;;;;8.32;2.70;;;19.50;99.90;;;;;;5030542;28;20408;-65
2023/08/05 11:13:36;;;;;;;6.68;2.22;;;19.50;99.90;;;;;;5043437;28;20047;-66
2023/08/05 11:16:10;;;;;;;7.78;2.65;;;19.50;99.90;;;;;;5042555;28;20033;-65
2023/08/05 11:18:37;;;;;;;5.60;2.33;;;19.50;99.90;;;;;;5044886;28;20041;-67
2023/08/05 11:21:05;;;;;;;6.82;2.33;;;19.50;99.90;;;;;;5042581;28;20500;-68
2023/08/05 11:23:32;;;;;;;6.93;1.90;;;19.50;99.90;;;;;;5044662;28;20542;-65
2023/08/05 11:26:01;;;;;;;5.70;2.10;;;19.40;99.90;;;;;;5024137;28;20051;-69
2023/08/05 11:28:28;;;;;;;7.03;2.33;;;19.40;99.90;;;;;;5043153;28;20049;-65
2023/08/05 11:30:56;;;;;;;6.50;2.47;;;19.40;99.90;;;;;;5043967;28;20440;-64
2023/08/05 11:33:22;;;;;;;7.53;2.03;;;19.40;99.90;;;;;;5043110;28;20059;-65
2023/08/05 11:35:51;;;;;;;5.05;2.20;;;19.50;99.90;;;;;;5042906;28;20131;-66
2023/08/05 11:38:22;;;;;;;6.15;2.00;;;19.60;99.90;;;;;;5043860;28;20102;-65
2023/08/05 11:40:55;;;;;;;5.00;2.10;;;19.70;99.90;;;;;;5035749;28;20043;-67
2023/08/05 11:43:22;;;;;;;7.18;2.20;;;19.70;99.90;;;;;;5039535;28;20049;-64
2023/08/05 11:45:49;;;;;;;6.20;2.33;;;19.70;99.90;;;;;;5023782;28;20363;-65
2023/08/05 11:48:23;;;;;;;8.88;2.35;;;19.80;99.90;;;;;;5023008;28;20038;-64
2023/08/05 11:50:51;;;;;;;7.47;2.65;;;19.90;99.90;;;;;;5024798;28;20052;-63
2023/08/05 11:53:17;;;;;;;5.40;2.35;;;20.00;99.90;;;;;;5022911;28;20041;-66
2023/08/05 11:55:44;;;;;;;5.38;2.45;;;20.10;99.90;;;;;;5024191;28;20037;-64
2023/08/05 11:58:11;;;;;;;9.38;2.17;;;20.10;99.90;;;;;;5023790;28;20069;-69
2023/08/05 12:00:46;;;;;;;5.90;2.72;;;20.00;99.90;;;;;;5044036;28;20055;-61
2023/08/05 12:03:13;;;;;;;7.50;2.83;;;19.90;99.90;;;;;;5023225;28;20535;-65
2023/08/05 12:05:41;;;;;;;6.13;2.45;;;19.70;99.90;;;;;;5022897;28;20042;-66
2023/08/05 12:08:07;;;;;;;6.30;2.35;;;19.60;99.90;;;;;;5022846;28;20052;-64
2023/08/05 12:10:33;;;;;;;7.57;3.03;;;19.60;99.90;;;;;;5038865;28;20045;-65
2023/08/05 12:13:03;;;;;;;6.75;2.65;;;19.60;99.90;;;;;;5022781;28;20045;-65
2023/08/05 12:15:29;;;;;;;9.90;2.80;;;19.60;99.90;;;;;;5034831;28;20559;-63
2023/08/05 12:17:59;;;;;;;7.53;3.15;;;19.60;99.90;;;;;;5026349;28;20044;-64
2023/08/05 12:20:30;;;;;;;8.50;4.07;;;19.60;99.90;;;;;;5043211;28;20583;-67
2023/08/05 12:22:59;;;;;;;6.88;3.20;;;19.60;99.90;;;;;;5025300;28;20099;-70
2023/08/05 12:25:27;;;;;;;6.75;3.50;;;19.50;99.90;;;;;;5024948;28;20289;-65
2023/08/05 12:27:53;;;;;;;9.15;3.33;;;19.50;99.90;;;;;;5042581;28;20167;-63
2023/08/05 12:30:18;;;;;;;10.20;3.63;;;19.60;99.90;;;;;;5046260;28;20112;-64
2023/08/05 12:32:44;;;;;;;8.70;4.50;;;19.60;99.90;;;;;;5046380;28;20408;-66
2023/08/05 12:35:10;;;;;;;10.70;4.55;;;19.50;99.90;;;;;;5047662;28;20309;-65
2023/08/05 12:37:38;;;;;;;8.18;4.40;;;19.50;99.90;;;;;;5046253;28;20073;-63
2023/08/05 12:40:06;;;;;;;8.00;4.45;;;19.50;99.90;;;;;;5047125;28;20099;-62
2023/08/05 12:42:33;;;;;;;9.88;5.05;;;19.40;99.90;;;;;;5044842;28;20474;-62